sensor_id;sensor_type;location;lat;lon;timestamp;P1;durP1;ratioP1;P2;durP2;ratioP2
39620;SDS011;25309;48.686;9.170;2023-02-03T00:01:54;1.47;;;0.80;;
39620;SDS011;25309;48.686;9.170;2023-02-03T00:04:22;2.20;;;1.30;;
39620;SDS011;25309;48.686;9.170;2023-02-03T00:06:49;1.27;;;0.80;;
39620;SDS011;25309;48.686;9.170;2023-02-03T00:09:16;1.30;;;0.90;;
39620;SDS011;25309;48.686;9.170;2023-02-03T00:11:44;2.03;;;1.13;;
39620;SDS011;25309;48.686;9.170;2023-02-03T00:14:11;1.43;;;1.00;;
39620;SDS011;25309;48.686;9.170;2023-02-03T00:16:38;2.13;;;1.00;;
39620;SDS011;25309;48.686;9.170;2023-02-03T00:19:05;2.73;;;0.80;;
39620;SDS011;25309;48.686;9.170;2023-02-03T00:21:33;1.00;;;0.80;;
39620;SDS011;25309;48.686;9.170;2023-02-03T00:24:00;1.13;;;0.70;;
39620;SDS011;25309;48.686;9.170;2023-02-03T00:26:27;1.17;;;0.80;;
39620;SDS011;25309;48.686;9.170;2023-02-03T00:28:54;1.80;;;0.80;;
39620;SDS011;25309;48.686;9.170;2023-02-03T00:31:22;1.10;;;0.80;;
39620;SDS011;25309;48.686;9.170;2023-02-03T00:33:52;1.63;;;0.67;;
39620;SDS011;25309;48.686;9.170;2023-02-03T00:36:20;1.40;;;0.70;;
39620;SDS011;25309;48.686;9.170;2023-02-03T00:38:49;1.10;;;0.77;;
39620;SDS011;25309;48.686;9.170;2023-02-03T00:41:17;0.60;;;0.60;;
39620;SDS011;25309;48.686;9.170;2023-02-03T00:43:45;1.20;;;0.50;;
39620;SDS011;25309;48.686;9.170;2023-02-03T00:46:12;1.23;;;0.87;;
39620;SDS011;25309;48.686;9.170;2023-02-03T00:48:39;0.87;;;0.60;;
39620;SDS011;25309;48.686;9.170;2023-02-03T00:51:06;1.10;;;0.77;;
39620;SDS011;25309;48.686;9.170;2023-02-03T00:53:33;1.10;;;0.60;;
39620;SDS011;25309;48.686;9.170;2023-02-03T00:56:01;0.50;;;0.50;;
39620;SDS011;25309;48.686;9.170;2023-02-03T00:58:28;0.53;;;0.53;;
39620;SDS011;25309;48.686;9.170;2023-02-03T01:00:55;0.87;;;0.70;;
39620;SDS011;25309;48.686;9.170;2023-02-03T01:03:23;0.70;;;0.50;;
39620;SDS011;25309;48.686;9.170;2023-02-03T01:05:50;0.50;;;0.50;;
39620;SDS011;25309;48.686;9.170;2023-02-03T01:08:18;1.30;;;0.70;;
39620;SDS011;25309;48.686;9.170;2023-02-03T01:10:44;1.67;;;0.63;;
39620;SDS011;25309;48.686;9.170;2023-02-03T01:13:13;1.93;;;0.70;;
39620;SDS011;25309;48.686;9.170;2023-02-03T01:15:44;1.63;;;0.70;;
39620;SDS011;25309;48.686;9.170;2023-02-03T01:18:12;1.80;;;0.60;;
39620;SDS011;25309;48.686;9.170;2023-02-03T01:20:38;0.70;;;0.60;;
39620;SDS011;25309;48.686;9.170;2023-02-03T01:23:05;1.83;;;0.70;;
39620;SDS011;25309;48.686;9.170;2023-02-03T01:25:33;1.37;;;0.90;;
39620;SDS011;25309;48.686;9.170;2023-02-03T01:28:00;1.10;;;0.70;;
39620;SDS011;25309;48.686;9.170;2023-02-03T01:30:28;1.83;;;0.77;;
39620;SDS011;25309;48.686;9.170;2023-02-03T01:32:55;1.83;;;0.90;;
39620;SDS011;25309;48.686;9.170;2023-02-03T01:35:23;1.63;;;0.90;;
39620;SDS011;25309;48.686;9.170;2023-02-03T01:37:50;1.23;;;1.00;;
39620;SDS011;25309;48.686;9.170;2023-02-03T01:40:17;1.17;;;0.87;;
39620;SDS011;25309;48.686;9.170;2023-02-03T01:42:44;1.70;;;0.90;;
39620;SDS011;25309;48.686;9.170;2023-02-03T01:45:12;1.87;;;1.50;;
39620;SDS011;25309;48.686;9.170;2023-02-03T01:47:41;1.90;;;1.00;;
39620;SDS011;25309;48.686;9.170;2023-02-03T01:50:12;2.37;;;1.23;;
39620;SDS011;25309;48.686;9.170;2023-02-03T01:52:43;1.57;;;1.10;;
39620;SDS011;25309;48.686;9.170;2023-02-03T01:55:13;2.37;;;1.10;;
39620;SDS011;25309;48.686;9.170;2023-02-03T01:57:46;1.97;;;1.00;;
39620;SDS011;25309;48.686;9.170;2023-02-03T02:00:16;1.27;;;1.10;;
39620;SDS011;25309;48.686;9.170;2023-02-03T02:02:46;2.33;;;1.40;;
39620;SDS011;25309;48.686;9.170;2023-02-03T02:05:16;1.70;;;1.20;;
39620;SDS011;25309;48.686;9.170;2023-02-03T02:07:47;2.53;;;1.20;;
39620;SDS011;25309;48.686;9.170;2023-02-03T02:10:15;1.37;;;1.10;;
39620;SDS011;25309;48.686;9.170;2023-02-03T02:12:42;1.80;;;1.40;;
39620;SDS011;25309;48.686;9.170;2023-02-03T02:15:09;2.27;;;1.20;;
39620;SDS011;25309;48.686;9.170;2023-02-03T02:20:39;2.27;;;1.30;;
39620;SDS011;25309;48.686;9.170;2023-02-03T02:23:38;1.70;;;1.40;;
39620;SDS011;25309;48.686;9.170;2023-02-03T02:26:23;2.33;;;1.47;;
39620;SDS011;25309;48.686;9.170;2023-02-03T02:32:20;2.97;;;1.40;;
39620;SDS011;25309;48.686;9.170;2023-02-03T02:34:58;2.73;;;1.37;;
39620;SDS011;25309;48.686;9.170;2023-02-03T02:37:34;1.63;;;1.23;;
39620;SDS011;25309;48.686;9.170;2023-02-03T02:40:09;3.03;;;1.30;;
39620;SDS011;25309;48.686;9.170;2023-02-03T02:42:47;2.67;;;1.37;;
39620;SDS011;25309;48.686;9.170;2023-02-03T02:45:26;2.40;;;1.33;;
39620;SDS011;25309;48.686;9.170;2023-02-03T02:48:00;2.53;;;1.30;;
39620;SDS011;25309;48.686;9.170;2023-02-03T02:50:32;3.90;;;1.50;;
39620;SDS011;25309;48.686;9.170;2023-02-03T02:53:04;4.63;;;1.53;;
39620;SDS011;25309;48.686;9.170;2023-02-03T02:55:32;4.40;;;1.30;;
39620;SDS011;25309;48.686;9.170;2023-02-03T02:58:05;2.67;;;1.50;;
39620;SDS011;25309;48.686;9.170;2023-02-03T03:00:35;1.23;;;1.10;;
39620;SDS011;25309;48.686;9.170;2023-02-03T03:03:10;2.23;;;1.37;;
39620;SDS011;25309;48.686;9.170;2023-02-03T03:05:39;2.77;;;1.30;;
39620;SDS011;25309;48.686;9.170;2023-02-03T03:08:12;1.40;;;1.30;;
39620;SDS011;25309;48.686;9.170;2023-02-03T03:10:41;1.60;;;1.00;;
39620;SDS011;25309;48.686;9.170;2023-02-03T03:13:10;1.53;;;1.13;;
39620;SDS011;25309;48.686;9.170;2023-02-03T03:15:44;1.73;;;1.23;;
39620;SDS011;25309;48.686;9.170;2023-02-03T03:18:13;1.63;;;1.00;;
39620;SDS011;25309;48.686;9.170;2023-02-03T03:20:46;3.30;;;1.17;;
39620;SDS011;25309;48.686;9.170;2023-02-03T03:23:17;1.50;;;1.20;;
39620;SDS011;25309;48.686;9.170;2023-02-03T03:25:48;1.90;;;0.93;;
39620;SDS011;25309;48.686;9.170;2023-02-03T03:28:21;1.07;;;0.87;;
39620;SDS011;25309;48.686;9.170;2023-02-03T03:30:52;2.13;;;1.13;;
39620;SDS011;25309;48.686;9.170;2023-02-03T03:33:21;2.37;;;1.10;;
39620;SDS011;25309;48.686;9.170;2023-02-03T03:35:49;2.47;;;1.10;;
39620;SDS011;25309;48.686;9.170;2023-02-03T03:38:22;2.30;;;1.00;;
39620;SDS011;25309;48.686;9.170;2023-02-03T03:41:00;1.57;;;0.90;;
39620;SDS011;25309;48.686;9.170;2023-02-03T03:43:31;1.20;;;0.90;;
39620;SDS011;25309;48.686;9.170;2023-02-03T03:46:05;1.20;;;0.70;;
39620;SDS011;25309;48.686;9.170;2023-02-03T03:48:40;1.03;;;0.63;;
39620;SDS011;25309;48.686;9.170;2023-02-03T03:51:14;1.13;;;0.80;;
39620;SDS011;25309;48.686;9.170;2023-02-03T03:53:44;1.37;;;0.90;;
39620;SDS011;25309;48.686;9.170;2023-02-03T03:56:16;0.80;;;0.70;;
39620;SDS011;25309;48.686;9.170;2023-02-03T03:58:49;1.47;;;0.83;;
39620;SDS011;25309;48.686;9.170;2023-02-03T04:01:18;1.33;;;0.70;;
39620;SDS011;25309;48.686;9.170;2023-02-03T04:03:51;0.70;;;0.67;;
39620;SDS011;25309;48.686;9.170;2023-02-03T04:06:21;0.57;;;0.57;;
39620;SDS011;25309;48.686;9.170;2023-02-03T04:08:49;0.80;;;0.67;;
39620;SDS011;25309;48.686;9.170;2023-02-03T04:11:16;0.70;;;0.60;;
39620;SDS011;25309;48.686;9.170;2023-02-03T04:14:03;1.43;;;0.70;;
39620;SDS011;25309;48.686;9.170;2023-02-03T04:16:30;0.80;;;0.80;;
39620;SDS011;25309;48.686;9.170;2023-02-03T04:18:58;1.00;;;0.70;;
39620;SDS011;25309;48.686;9.170;2023-02-03T04:21:25;1.07;;;0.93;;
39620;SDS011;25309;48.686;9.170;2023-02-03T04:23:52;1.30;;;0.90;;
39620;SDS011;25309;48.686;9.170;2023-02-03T04:26:21;1.67;;;1.00;;
39620;SDS011;25309;48.686;9.170;2023-02-03T04:28:49;3.53;;;1.00;;
39620;SDS011;25309;48.686;9.170;2023-02-03T04:31:15;1.37;;;0.90;;
39620;SDS011;25309;48.686;9.170;2023-02-03T04:33:42;1.73;;;1.03;;
39620;SDS011;25309;48.686;9.170;2023-02-03T04:36:11;1.70;;;0.90;;
39620;SDS011;25309;48.686;9.170;2023-02-03T04:38:38;1.90;;;1.10;;
39620;SDS011;25309;48.686;9.170;2023-02-03T04:41:05;1.23;;;1.00;;
39620;SDS011;25309;48.686;9.170;2023-02-03T04:43:32;1.43;;;0.93;;
39620;SDS011;25309;48.686;9.170;2023-02-03T04:45:58;2.33;;;0.80;;
39620;SDS011;25309;48.686;9.170;2023-02-03T04:48:26;1.23;;;0.87;;
39620;SDS011;25309;48.686;9.170;2023-02-03T04:50:53;2.80;;;0.93;;
39620;SDS011;25309;48.686;9.170;2023-02-03T04:53:22;1.37;;;1.00;;
39620;SDS011;25309;48.686;9.170;2023-02-03T04:55:49;3.37;;;1.10;;
39620;SDS011;25309;48.686;9.170;2023-02-03T04:58:15;1.50;;;1.10;;
39620;SDS011;25309;48.686;9.170;2023-02-03T05:00:42;1.87;;;1.10;;
39620;SDS011;25309;48.686;9.170;2023-02-03T05:03:09;1.73;;;1.03;;
39620;SDS011;25309;48.686;9.170;2023-02-03T05:05:36;1.47;;;1.00;;
39620;SDS011;25309;48.686;9.170;2023-02-03T05:08:03;1.17;;;1.07;;
39620;SDS011;25309;48.686;9.170;2023-02-03T05:10:31;1.33;;;1.00;;
39620;SDS011;25309;48.686;9.170;2023-02-03T05:12:58;1.97;;;1.10;;
39620;SDS011;25309;48.686;9.170;2023-02-03T05:15:25;1.90;;;1.00;;
39620;SDS011;25309;48.686;9.170;2023-02-03T05:17:53;2.53;;;1.13;;
39620;SDS011;25309;48.686;9.170;2023-02-03T05:20:21;1.00;;;0.90;;
39620;SDS011;25309;48.686;9.170;2023-02-03T05:22:48;2.03;;;1.10;;
39620;SDS011;25309;48.686;9.170;2023-02-03T05:25:15;1.47;;;0.90;;
39620;SDS011;25309;48.686;9.170;2023-02-03T05:27:43;1.40;;;0.90;;
39620;SDS011;25309;48.686;9.170;2023-02-03T05:30:10;2.67;;;1.00;;
39620;SDS011;25309;48.686;9.170;2023-02-03T05:32:38;1.70;;;0.93;;
39620;SDS011;25309;48.686;9.170;2023-02-03T05:35:05;2.40;;;1.10;;
39620;SDS011;25309;48.686;9.170;2023-02-03T05:37:32;1.33;;;0.90;;
39620;SDS011;25309;48.686;9.170;2023-02-03T05:39:59;1.83;;;1.10;;
39620;SDS011;25309;48.686;9.170;2023-02-03T05:42:48;1.63;;;1.20;;
39620;SDS011;25309;48.686;9.170;2023-02-03T05:45:15;1.97;;;1.27;;
39620;SDS011;25309;48.686;9.170;2023-02-03T05:47:42;3.27;;;1.73;;
39620;SDS011;25309;48.686;9.170;2023-02-03T05:50:09;2.37;;;1.33;;
39620;SDS011;25309;48.686;9.170;2023-02-03T05:52:36;2.13;;;1.50;;
39620;SDS011;25309;48.686;9.170;2023-02-03T05:55:03;2.20;;;1.23;;
39620;SDS011;25309;48.686;9.170;2023-02-03T05:57:30;2.07;;;1.20;;
39620;SDS011;25309;48.686;9.170;2023-02-03T05:59:59;2.90;;;1.70;;
39620;SDS011;25309;48.686;9.170;2023-02-03T06:02:25;3.47;;;1.20;;
39620;SDS011;25309;48.686;9.170;2023-02-03T06:04:52;2.63;;;1.50;;
39620;SDS011;25309;48.686;9.170;2023-02-03T06:07:19;2.77;;;1.57;;
39620;SDS011;25309;48.686;9.170;2023-02-03T06:09:46;2.37;;;1.20;;
39620;SDS011;25309;48.686;9.170;2023-02-03T06:12:13;3.40;;;1.40;;
39620;SDS011;25309;48.686;9.170;2023-02-03T06:14:40;1.97;;;1.30;;
39620;SDS011;25309;48.686;9.170;2023-02-03T06:17:09;2.50;;;1.40;;
39620;SDS011;25309;48.686;9.170;2023-02-03T06:19:35;2.30;;;1.40;;
39620;SDS011;25309;48.686;9.170;2023-02-03T06:22:02;2.40;;;1.27;;
39620;SDS011;25309;48.686;9.170;2023-02-03T06:24:29;4.07;;;1.47;;
39620;SDS011;25309;48.686;9.170;2023-02-03T06:26:56;2.50;;;1.57;;
39620;SDS011;25309;48.686;9.170;2023-02-03T06:29:23;4.07;;;1.83;;
39620;SDS011;25309;48.686;9.170;2023-02-03T06:31:50;1.27;;;1.13;;
39620;SDS011;25309;48.686;9.170;2023-02-03T06:34:18;2.03;;;1.00;;
39620;SDS011;25309;48.686;9.170;2023-02-03T06:36:45;1.80;;;1.13;;
39620;SDS011;25309;48.686;9.170;2023-02-03T06:39:13;3.90;;;1.80;;
39620;SDS011;25309;48.686;9.170;2023-02-03T06:41:41;1.30;;;1.10;;
39620;SDS011;25309;48.686;9.170;2023-02-03T06:44:07;1.50;;;1.30;;
39620;SDS011;25309;48.686;9.170;2023-02-03T06:46:34;2.70;;;1.33;;
39620;SDS011;25309;48.686;9.170;2023-02-03T06:49:01;1.40;;;0.90;;
39620;SDS011;25309;48.686;9.170;2023-02-03T06:51:30;2.57;;;1.00;;
39620;SDS011;25309;48.686;9.170;2023-02-03T06:53:58;2.23;;;0.80;;
39620;SDS011;25309;48.686;9.170;2023-02-03T06:56:25;1.50;;;1.10;;
39620;SDS011;25309;48.686;9.170;2023-02-03T06:58:52;1.60;;;1.20;;
39620;SDS011;25309;48.686;9.170;2023-02-03T07:01:19;2.07;;;1.20;;
39620;SDS011;25309;48.686;9.170;2023-02-03T07:03:46;2.10;;;1.10;;
39620;SDS011;25309;48.686;9.170;2023-02-03T07:06:13;3.37;;;1.70;;
39620;SDS011;25309;48.686;9.170;2023-02-03T07:08:41;3.10;;;1.40;;
39620;SDS011;25309;48.686;9.170;2023-02-03T07:11:08;3.40;;;1.40;;
39620;SDS011;25309;48.686;9.170;2023-02-03T07:13:35;3.10;;;1.23;;
39620;SDS011;25309;48.686;9.170;2023-02-03T07:16:02;2.33;;;1.50;;
39620;SDS011;25309;48.686;9.170;2023-02-03T07:18:29;2.53;;;1.97;;
39620;SDS011;25309;48.686;9.170;2023-02-03T07:21:12;2.73;;;1.43;;
39620;SDS011;25309;48.686;9.170;2023-02-03T07:23:39;3.47;;;1.43;;
39620;SDS011;25309;48.686;9.170;2023-02-03T07:26:08;3.67;;;1.60;;
39620;SDS011;25309;48.686;9.170;2023-02-03T07:28:36;2.73;;;1.60;;
39620;SDS011;25309;48.686;9.170;2023-02-03T07:31:03;2.37;;;1.50;;
39620;SDS011;25309;48.686;9.170;2023-02-03T07:33:30;2.60;;;1.60;;
39620;SDS011;25309;48.686;9.170;2023-02-03T07:35:58;2.37;;;1.77;;
39620;SDS011;25309;48.686;9.170;2023-02-03T07:38:26;3.10;;;1.83;;
39620;SDS011;25309;48.686;9.170;2023-02-03T07:40:55;2.83;;;1.73;;
39620;SDS011;25309;48.686;9.170;2023-02-03T07:43:22;2.00;;;1.80;;
39620;SDS011;25309;48.686;9.170;2023-02-03T07:45:49;4.23;;;2.20;;
39620;SDS011;25309;48.686;9.170;2023-02-03T07:48:16;4.30;;;2.03;;
39620;SDS011;25309;48.686;9.170;2023-02-03T07:50:43;5.23;;;2.10;;
39620;SDS011;25309;48.686;9.170;2023-02-03T07:53:11;3.10;;;2.10;;
39620;SDS011;25309;48.686;9.170;2023-02-03T07:55:38;4.60;;;2.00;;
39620;SDS011;25309;48.686;9.170;2023-02-03T07:58:06;4.30;;;2.30;;
39620;SDS011;25309;48.686;9.170;2023-02-03T08:00:34;3.80;;;2.00;;
39620;SDS011;25309;48.686;9.170;2023-02-03T08:03:01;3.73;;;2.00;;
39620;SDS011;25309;48.686;9.170;2023-02-03T08:05:28;3.57;;;2.00;;
39620;SDS011;25309;48.686;9.170;2023-02-03T08:07:55;3.83;;;2.23;;
39620;SDS011;25309;48.686;9.170;2023-02-03T08:10:22;3.20;;;1.80;;
39620;SDS011;25309;48.686;9.170;2023-02-03T08:12:51;4.67;;;2.20;;
39620;SDS011;25309;48.686;9.170;2023-02-03T08:15:19;3.83;;;1.90;;
39620;SDS011;25309;48.686;9.170;2023-02-03T08:17:47;3.87;;;2.17;;
39620;SDS011;25309;48.686;9.170;2023-02-03T08:20:14;4.27;;;2.30;;
39620;SDS011;25309;48.686;9.170;2023-02-03T08:22:42;5.70;;;2.43;;
39620;SDS011;25309;48.686;9.170;2023-02-03T08:25:09;5.20;;;2.40;;
39620;SDS011;25309;48.686;9.170;2023-02-03T08:27:36;5.73;;;2.53;;
39620;SDS011;25309;48.686;9.170;2023-02-03T08:30:04;5.20;;;2.73;;
39620;SDS011;25309;48.686;9.170;2023-02-03T08:32:34;5.40;;;2.80;;
39620;SDS011;25309;48.686;9.170;2023-02-03T08:35:01;7.73;;;2.87;;
39620;SDS011;25309;48.686;9.170;2023-02-03T08:37:28;4.60;;;2.90;;
39620;SDS011;25309;48.686;9.170;2023-02-03T08:39:58;7.53;;;3.13;;
39620;SDS011;25309;48.686;9.170;2023-02-03T08:42:25;4.93;;;2.57;;
39620;SDS011;25309;48.686;9.170;2023-02-03T08:44:52;6.03;;;2.80;;
39620;SDS011;25309;48.686;9.170;2023-02-03T08:47:19;4.80;;;2.60;;
39620;SDS011;25309;48.686;9.170;2023-02-03T08:49:47;7.47;;;3.30;;
39620;SDS011;25309;48.686;9.170;2023-02-03T08:52:14;5.50;;;3.00;;
39620;SDS011;25309;48.686;9.170;2023-02-03T08:54:44;5.97;;;2.93;;
39620;SDS011;25309;48.686;9.170;2023-02-03T08:57:11;5.00;;;3.00;;
39620;SDS011;25309;48.686;9.170;2023-02-03T08:59:39;6.90;;;2.97;;
39620;SDS011;25309;48.686;9.170;2023-02-03T09:02:08;6.67;;;3.23;;
39620;SDS011;25309;48.686;9.170;2023-02-03T09:04:38;6.23;;;3.80;;
39620;SDS011;25309;48.686;9.170;2023-02-03T09:07:06;7.20;;;3.67;;
39620;SDS011;25309;48.686;9.170;2023-02-03T09:09:34;8.77;;;3.70;;
39620;SDS011;25309;48.686;9.170;2023-02-03T09:12:01;6.77;;;3.40;;
39620;SDS011;25309;48.686;9.170;2023-02-03T09:14:30;7.27;;;3.30;;
39620;SDS011;25309;48.686;9.170;2023-02-03T09:16:58;10.13;;;4.00;;
39620;SDS011;25309;48.686;9.170;2023-02-03T09:19:25;6.13;;;3.53;;
39620;SDS011;25309;48.686;9.170;2023-02-03T09:21:52;7.20;;;3.73;;
39620;SDS011;25309;48.686;9.170;2023-02-03T09:24:21;9.83;;;4.30;;
39620;SDS011;25309;48.686;9.170;2023-02-03T09:26:48;6.87;;;3.03;;
39620;SDS011;25309;48.686;9.170;2023-02-03T09:29:15;8.47;;;3.40;;
39620;SDS011;25309;48.686;9.170;2023-02-03T09:31:42;7.03;;;3.77;;
39620;SDS011;25309;48.686;9.170;2023-02-03T09:34:09;9.43;;;3.83;;
39620;SDS011;25309;48.686;9.170;2023-02-03T09:36:36;5.90;;;3.53;;
39620;SDS011;25309;48.686;9.170;2023-02-03T09:39:03;8.80;;;4.20;;
39620;SDS011;25309;48.686;9.170;2023-02-03T09:41:38;6.80;;;3.50;;
39620;SDS011;25309;48.686;9.170;2023-02-03T09:44:16;7.27;;;3.77;;
39620;SDS011;25309;48.686;9.170;2023-02-03T09:46:52;8.00;;;3.17;;
39620;SDS011;25309;48.686;9.170;2023-02-03T09:49:23;6.90;;;3.40;;
39620;SDS011;25309;48.686;9.170;2023-02-03T09:51:54;6.17;;;3.27;;
39620;SDS011;25309;48.686;9.170;2023-02-03T09:54:26;6.73;;;2.57;;
39620;SDS011;25309;48.686;9.170;2023-02-03T09:57:05;7.37;;;3.40;;
39620;SDS011;25309;48.686;9.170;2023-02-03T09:59:39;7.90;;;3.13;;
39620;SDS011;25309;48.686;9.170;2023-02-03T10:02:13;5.73;;;2.73;;
39620;SDS011;25309;48.686;9.170;2023-02-03T10:05:03;7.97;;;3.33;;
39620;SDS011;25309;48.686;9.170;2023-02-03T10:07:41;5.00;;;3.03;;
39620;SDS011;25309;48.686;9.170;2023-02-03T10:10:16;5.33;;;2.50;;
39620;SDS011;25309;48.686;9.170;2023-02-03T10:12:55;7.13;;;2.70;;
39620;SDS011;25309;48.686;9.170;2023-02-03T10:18:34;4.10;;;2.33;;
39620;SDS011;25309;48.686;9.170;2023-02-03T10:21:09;5.87;;;2.70;;
39620;SDS011;25309;48.686;9.170;2023-02-03T10:23:39;4.43;;;2.50;;
39620;SDS011;25309;48.686;9.170;2023-02-03T10:26:11;3.83;;;2.10;;
39620;SDS011;25309;48.686;9.170;2023-02-03T10:28:44;3.70;;;2.20;;
39620;SDS011;25309;48.686;9.170;2023-02-03T10:31:19;2.90;;;2.00;;
39620;SDS011;25309;48.686;9.170;2023-02-03T10:33:48;4.03;;;2.10;;
39620;SDS011;25309;48.686;9.170;2023-02-03T10:36:27;2.13;;;1.50;;
39620;SDS011;25309;48.686;9.170;2023-02-03T10:39:01;2.87;;;1.70;;
39620;SDS011;25309;48.686;9.170;2023-02-03T10:41:35;3.07;;;2.07;;
39620;SDS011;25309;48.686;9.170;2023-02-03T10:44:04;3.57;;;1.50;;
39620;SDS011;25309;48.686;9.170;2023-02-03T10:46:33;2.73;;;2.00;;
39620;SDS011;25309;48.686;9.170;2023-02-03T10:49:03;2.33;;;1.80;;
39620;SDS011;25309;48.686;9.170;2023-02-03T10:51:35;2.17;;;1.57;;
39620;SDS011;25309;48.686;9.170;2023-02-03T10:54:04;2.43;;;1.63;;
39620;SDS011;25309;48.686;9.170;2023-02-03T10:56:50;2.70;;;1.40;;
39620;SDS011;25309;48.686;9.170;2023-02-03T10:59:25;2.33;;;1.50;;
39620;SDS011;25309;48.686;9.170;2023-02-03T11:01:54;2.00;;;1.30;;
39620;SDS011;25309;48.686;9.170;2023-02-03T11:04:23;2.43;;;1.23;;
39620;SDS011;25309;48.686;9.170;2023-02-03T11:06:55;1.60;;;1.33;;
39620;SDS011;25309;48.686;9.170;2023-02-03T11:09:27;1.87;;;1.30;;
39620;SDS011;25309;48.686;9.170;2023-02-03T11:12:09;1.83;;;0.97;;
39620;SDS011;25309;48.686;9.170;2023-02-03T11:14:41;1.00;;;0.90;;
39620;SDS011;25309;48.686;9.170;2023-02-03T11:17:15;6.07;;;1.23;;
39620;SDS011;25309;48.686;9.170;2023-02-03T11:19:44;1.37;;;0.90;;
39620;SDS011;25309;48.686;9.170;2023-02-03T11:22:13;1.20;;;1.00;;
39620;SDS011;25309;48.686;9.170;2023-02-03T11:24:53;2.17;;;1.40;;
39620;SDS011;25309;48.686;9.170;2023-02-03T11:27:20;1.90;;;1.30;;
39620;SDS011;25309;48.686;9.170;2023-02-03T11:29:52;3.17;;;2.10;;
39620;SDS011;25309;48.686;9.170;2023-02-03T11:32:34;2.17;;;1.50;;
39620;SDS011;25309;48.686;9.170;2023-02-03T11:35:04;3.17;;;1.67;;
39620;SDS011;25309;48.686;9.170;2023-02-03T11:37:42;2.63;;;1.50;;
39620;SDS011;25309;48.686;9.170;2023-02-03T11:40:11;5.83;;;2.37;;
39620;SDS011;25309;48.686;9.170;2023-02-03T11:43:01;3.83;;;1.70;;
39620;SDS011;25309;48.686;9.170;2023-02-03T11:45:33;1.57;;;1.03;;
39620;SDS011;25309;48.686;9.170;2023-02-03T11:48:10;1.30;;;1.07;;
39620;SDS011;25309;48.686;9.170;2023-02-03T11:50:44;1.03;;;0.80;;
39620;SDS011;25309;48.686;9.170;2023-02-03T11:53:17;2.07;;;0.90;;
39620;SDS011;25309;48.686;9.170;2023-02-03T11:55:55;1.73;;;0.90;;
39620;SDS011;25309;48.686;9.170;2023-02-03T11:58:56;1.00;;;0.90;;
39620;SDS011;25309;48.686;9.170;2023-02-03T12:01:43;1.00;;;0.80;;
39620;SDS011;25309;48.686;9.170;2023-02-03T12:04:54;0.97;;;0.70;;
39620;SDS011;25309;48.686;9.170;2023-02-03T12:07:40;1.33;;;0.93;;
39620;SDS011;25309;48.686;9.170;2023-02-03T12:10:24;1.07;;;0.80;;
39620;SDS011;25309;48.686;9.170;2023-02-03T12:13:04;1.90;;;0.70;;
39620;SDS011;25309;48.686;9.170;2023-02-03T12:15:48;1.13;;;0.60;;
39620;SDS011;25309;48.686;9.170;2023-02-03T12:18:38;1.33;;;0.80;;
39620;SDS011;25309;48.686;9.170;2023-02-03T12:21:18;1.77;;;0.80;;
39620;SDS011;25309;48.686;9.170;2023-02-03T12:24:02;0.87;;;0.60;;
39620;SDS011;25309;48.686;9.170;2023-02-03T12:26:36;1.03;;;0.70;;
39620;SDS011;25309;48.686;9.170;2023-02-03T12:29:08;1.60;;;0.73;;
39620;SDS011;25309;48.686;9.170;2023-02-03T12:31:41;1.23;;;0.77;;
39620;SDS011;25309;48.686;9.170;2023-02-03T12:34:14;2.30;;;1.10;;
39620;SDS011;25309;48.686;9.170;2023-02-03T12:36:46;1.00;;;0.70;;
39620;SDS011;25309;48.686;9.170;2023-02-03T12:39:19;1.87;;;1.13;;
39620;SDS011;25309;48.686;9.170;2023-02-03T12:41:51;1.67;;;0.83;;
39620;SDS011;25309;48.686;9.170;2023-02-03T12:44:24;2.23;;;1.20;;
39620;SDS011;25309;48.686;9.170;2023-02-03T12:46:59;0.73;;;0.70;;
39620;SDS011;25309;48.686;9.170;2023-02-03T12:49:34;1.30;;;0.80;;
39620;SDS011;25309;48.686;9.170;2023-02-03T12:52:09;2.10;;;1.00;;
39620;SDS011;25309;48.686;9.170;2023-02-03T12:54:43;2.47;;;1.07;;
39620;SDS011;25309;48.686;9.170;2023-02-03T12:57:16;2.50;;;1.40;;
39620;SDS011;25309;48.686;9.170;2023-02-03T12:59:50;2.33;;;1.20;;
39620;SDS011;25309;48.686;9.170;2023-02-03T13:02:33;1.57;;;1.10;;
39620;SDS011;25309;48.686;9.170;2023-02-03T13:05:16;1.53;;;1.00;;
39620;SDS011;25309;48.686;9.170;2023-02-03T13:07:48;2.47;;;1.30;;
39620;SDS011;25309;48.686;9.170;2023-02-03T13:10:21;2.53;;;1.43;;
39620;SDS011;25309;48.686;9.170;2023-02-03T13:12:53;3.50;;;1.40;;
39620;SDS011;25309;48.686;9.170;2023-02-03T13:15:23;1.67;;;1.00;;
39620;SDS011;25309;48.686;9.170;2023-02-03T13:17:54;1.87;;;1.40;;
39620;SDS011;25309;48.686;9.170;2023-02-03T13:20:26;1.90;;;1.40;;
39620;SDS011;25309;48.686;9.170;2023-02-03T13:22:56;3.07;;;1.17;;
39620;SDS011;25309;48.686;9.170;2023-02-03T13:25:24;2.90;;;1.90;;
39620;SDS011;25309;48.686;9.170;2023-02-03T13:28:00;0.97;;;0.90;;
39620;SDS011;25309;48.686;9.170;2023-02-03T13:30:42;1.40;;;1.10;;
39620;SDS011;25309;48.686;9.170;2023-02-03T13:33:30;4.20;;;0.90;;
39620;SDS011;25309;48.686;9.170;2023-02-03T13:36:27;0.67;;;0.67;;
39620;SDS011;25309;48.686;9.170;2023-02-03T13:39:16;2.47;;;0.70;;
39620;SDS011;25309;48.686;9.170;2023-02-03T13:42:07;0.70;;;0.70;;
39620;SDS011;25309;48.686;9.170;2023-02-03T13:44:43;1.77;;;1.00;;
39620;SDS011;25309;48.686;9.170;2023-02-03T13:47:13;0.90;;;0.80;;
39620;SDS011;25309;48.686;9.170;2023-02-03T13:49:44;1.03;;;0.60;;
39620;SDS011;25309;48.686;9.170;2023-02-03T13:52:25;1.37;;;0.70;;
39620;SDS011;25309;48.686;9.170;2023-02-03T13:55:02;1.40;;;0.80;;
39620;SDS011;25309;48.686;9.170;2023-02-03T13:57:33;2.90;;;0.70;;
39620;SDS011;25309;48.686;9.170;2023-02-03T14:00:03;0.63;;;0.57;;
39620;SDS011;25309;48.686;9.170;2023-02-03T14:02:43;0.93;;;0.40;;
39620;SDS011;25309;48.686;9.170;2023-02-03T14:23:05;1.40;;;0.80;;
39620;SDS011;25309;48.686;9.170;2023-02-03T14:25:38;1.07;;;0.67;;
39620;SDS011;25309;48.686;9.170;2023-02-03T14:28:09;1.00;;;0.77;;
39620;SDS011;25309;48.686;9.170;2023-02-03T14:33:43;1.33;;;0.83;;
39620;SDS011;25309;48.686;9.170;2023-02-03T14:36:28;0.80;;;0.80;;
39620;SDS011;25309;48.686;9.170;2023-02-03T14:39:01;0.53;;;0.50;;
39620;SDS011;25309;48.686;9.170;2023-02-03T14:41:35;1.10;;;0.70;;
39620;SDS011;25309;48.686;9.170;2023-02-03T14:44:16;1.97;;;0.80;;
39620;SDS011;25309;48.686;9.170;2023-02-03T14:46:56;1.27;;;0.80;;
39620;SDS011;25309;48.686;9.170;2023-02-03T14:49:35;0.73;;;0.40;;
39620;SDS011;25309;48.686;9.170;2023-02-03T14:52:13;1.70;;;0.70;;
39620;SDS011;25309;48.686;9.170;2023-02-03T14:54:55;0.40;;;0.40;;
39620;SDS011;25309;48.686;9.170;2023-02-03T14:57:39;0.90;;;0.60;;
39620;SDS011;25309;48.686;9.170;2023-02-03T15:00:24;0.40;;;0.40;;
39620;SDS011;25309;48.686;9.170;2023-02-03T15:05:45;1.30;;;0.73;;
39620;SDS011;25309;48.686;9.170;2023-02-03T15:11:30;1.50;;;0.70;;
39620;SDS011;25309;48.686;9.170;2023-02-03T15:14:14;0.80;;;0.50;;
39620;SDS011;25309;48.686;9.170;2023-02-03T15:16:49;0.73;;;0.60;;
39620;SDS011;25309;48.686;9.170;2023-02-03T15:19:21;0.90;;;0.80;;
39620;SDS011;25309;48.686;9.170;2023-02-03T15:21:50;2.73;;;0.70;;
39620;SDS011;25309;48.686;9.170;2023-02-03T15:24:17;1.17;;;0.80;;
39620;SDS011;25309;48.686;9.170;2023-02-03T15:26:48;0.70;;;0.70;;
39620;SDS011;25309;48.686;9.170;2023-02-03T15:29:20;0.60;;;0.50;;
39620;SDS011;25309;48.686;9.170;2023-02-03T15:31:51;2.97;;;1.20;;
39620;SDS011;25309;48.686;9.170;2023-02-03T15:34:25;0.80;;;0.50;;
39620;SDS011;25309;48.686;9.170;2023-02-03T15:36:55;0.53;;;0.53;;
39620;SDS011;25309;48.686;9.170;2023-02-03T15:39:30;0.97;;;0.60;;
39620;SDS011;25309;48.686;9.170;2023-02-03T15:42:05;1.90;;;0.70;;
39620;SDS011;25309;48.686;9.170;2023-02-03T15:44:40;2.30;;;0.93;;
39620;SDS011;25309;48.686;9.170;2023-02-03T15:47:17;3.23;;;1.60;;
39620;SDS011;25309;48.686;9.170;2023-02-03T15:49:50;1.70;;;0.60;;